Time;durP1;ratioP1;P1;durP2;ratioP2;P2;SDS_P1;SDS_P2;PMS_P1;PMS_P2;Temp;Humidity;BMP_temperature;BMP_pressure;BME280_temperature;BME280_humidity;BME280_pressure;Samples;Min_cycle;Max_cycle;Signal;HPM_P1;HPM_P2
2021/09/20 00:01:12;;;;;;;6.25;4.43;;;;;;;10.75;42.75;95601.94;4973184;28;20119;-63
2021/09/20 00:03:37;;;;;;;5.30;4.18;;;;;;;10.73;41.77;95593.28;4973387;28;20107;-63
2021/09/20 00:06:03;;;;;;;6.75;4.40;;;;;;;10.79;42.35;95597.06;4973615;28;20110;-63
2021/09/20 00:08:28;;;;;;;5.95;4.40;;;;;;;10.81;41.98;95601.19;4973506;28;20595;-63
2021/09/20 00:10:54;;;;;;;6.80;4.45;;;;;;;10.80;42.07;95596.88;4973183;28;20178;-63
2021/09/20 00:13:19;;;;;;;5.50;4.47;;;;;;;10.82;42.74;95602.88;4972985;28;20123;-63
2021/09/20 00:15:45;;;;;;;7.38;4.20;;;;;;;10.85;41.92;95602.50;4962271;28;20169;-63
2021/09/20 00:18:10;;;;;;;6.93;4.68;;;;;;;10.81;41.86;95595.88;4973443;28;20110;-63
2021/09/20 00:20:36;;;;;;;5.68;4.30;;;;;;;10.86;41.84;95590.00;4972760;28;20820;-64
2021/09/20 00:23:01;;;;;;;5.60;4.20;;;;;;;10.85;41.40;95591.03;4973068;28;20519;-64
2021/09/20 00:25:26;;;;;;;6.47;4.25;;;;;;;10.85;41.57;95586.50;4973534;28;20086;-64
2021/09/20 00:27:52;;;;;;;5.70;4.45;;;;;;;10.84;41.67;95589.34;4965351;28;20206;-64
2021/09/20 00:30:18;;;;;;;6.10;4.53;;;;;;;10.92;41.17;95593.78;4969665;28;20086;-64
2021/09/20 00:32:43;;;;;;;7.35;4.70;;;;;;;10.75;43.11;95592.09;4972755;28;20871;-64
2021/09/20 00:35:09;;;;;;;5.18;4.40;;;;;;;10.78;41.56;95596.22;4971527;28;20087;-64
2021/09/20 00:37:34;;;;;;;5.85;4.50;;;;;;;10.83;41.58;95590.38;4964376;28;20166;-64
2021/09/20 00:39:59;;;;;;;5.38;4.40;;;;;;;10.78;42.68;95598.88;4968536;28;20129;-64
2021/09/20 00:42:25;;;;;;;5.32;4.30;;;;;;;10.79;42.06;95600.56;4971655;28;20076;-64
2021/09/20 00:44:50;;;;;;;6.25;4.78;;;;;;;10.78;42.88;95604.22;4968221;28;20119;-64
2021/09/20 00:47:16;;;;;;;5.40;4.10;;;;;;;10.77;44.62;95605.22;4972530;28;20142;-64
2021/09/20 00:49:42;;;;;;;6.25;4.45;;;;;;;10.74;43.64;95602.91;4971535;28;20587;-64
2021/09/20 00:52:08;;;;;;;6.55;4.70;;;;;;;10.81;42.61;95595.88;4972647;28;20614;-64
2021/09/20 00:54:33;;;;;;;7.35;4.22;;;;;;;10.75;41.65;95600.06;4972918;28;20083;-64
2021/09/20 00:56:59;;;;;;;5.35;4.15;;;;;;;10.72;41.61;95595.09;4967626;28;20110;-64
2021/09/20 00:59:24;;;;;;;5.10;4.13;;;;;;;10.77;41.44;95593.75;4966623;28;20107;-64
2021/09/20 01:01:50;;;;;;;6.35;4.40;;;;;;;10.73;42.27;95601.28;4972781;28;20091;-64
2021/09/20 01:04:15;;;;;;;5.80;4.30;;;;;;;10.73;42.52;95603.94;4953828;28;20114;-64
2021/09/20 01:06:41;;;;;;;5.10;4.03;;;;;;;10.82;41.58;95597.53;4971281;28;20095;-64
2021/09/20 01:09:07;;;;;;;5.82;4.35;;;;;;;10.82;41.68;95597.53;4971846;28;20103;-64
2021/09/20 01:11:32;;;;;;;5.82;4.65;;;;;;;10.77;42.42;95593.75;4971950;28;20162;-64
2021/09/20 01:13:58;;;;;;;6.60;4.50;;;;;;;10.79;41.77;95600.56;4953567;28;20146;-64
2021/09/20 01:16:23;;;;;;;6.93;4.32;;;;;;;10.74;41.89;95595.75;4972042;28;20675;-64
2021/09/20 01:18:48;;;;;;;4.90;4.38;;;;;;;10.73;41.97;95594.13;4972154;28;20090;-64
2021/09/20 01:21:15;;;;;;;7.75;4.60;;;;;;;10.77;41.72;95594.56;4971484;28;20134;-64
2021/09/20 01:23:42;;;;;;;6.22;4.43;;;;;;;10.81;41.41;95606.53;4971898;28;20107;-64
2021/09/20 01:26:09;;;;;;;6.07;4.18;;;;;;;10.83;41.28;95601.03;4970761;28;20079;-64
2021/09/20 01:28:34;;;;;;;5.00;4.00;;;;;;;10.74;41.61;95600.25;4960354;28;20104;-64
2021/09/20 01:30:59;;;;;;;5.40;4.22;;;;;;;10.66;41.67;95590.50;4971858;28;20091;-64
2021/09/20 01:33:25;;;;;;;4.72;4.03;;;;;;;10.65;41.65;95590.69;4958941;28;20129;-64
2021/09/20 01:35:50;;;;;;;6.45;4.55;;;;;;;10.59;40.92;95601.06;4963956;28;20484;-64
2021/09/20 01:38:16;;;;;;;5.72;3.95;;;;;;;10.65;42.00;95594.19;4954260;28;20075;-64
2021/09/20 01:40:41;;;;;;;6.30;4.20;;;;;;;10.62;42.04;95602.53;4971242;28;20136;-64
2021/09/20 01:43:06;;;;;;;4.70;4.00;;;;;;;10.66;41.67;95606.50;4971360;28;20491;-64
2021/09/20 01:45:32;;;;;;;5.00;4.13;;;;;;;10.68;41.28;95595.66;4967964;28;20091;-64
2021/09/20 01:47:57;;;;;;;6.47;4.50;;;;;;;10.61;41.33;95604.34;4970998;28;20118;-64
2021/09/20 01:50:23;;;;;;;5.10;3.90;;;;;;;10.68;41.50;95601.00;4972114;28;20079;-64
2021/09/20 01:52:48;;;;;;;6.97;4.10;;;;;;;10.69;41.19;95608.81;4971259;28;20115;-64
2021/09/20 01:55:14;;;;;;;8.23;4.32;;;;;;;10.65;41.95;95609.31;4971292;28;20177;-64
2021/09/20 01:57:40;;;;;;;5.07;4.10;;;;;;;10.63;41.48;95604.19;4963131;28;20227;-64
2021/09/20 02:00:06;;;;;;;5.57;4.15;;;;;;;10.64;41.55;95611.16;4971218;28;20856;-64
2021/09/20 02:02:32;;;;;;;5.47;4.15;;;;;;;10.65;42.09;95599.50;4971920;28;20798;-64
2021/09/20 02:04:57;;;;;;;4.75;4.00;;;;;;;10.66;42.21;95605.66;4970840;28;20131;-64
2021/09/20 02:07:23;;;;;;;6.57;4.25;;;;;;;10.65;41.72;95604.00;4971204;28;20459;-64
2021/09/20 02:09:48;;;;;;;6.22;4.07;;;;;;;10.67;41.75;95604.66;4971523;28;20075;-64
2021/09/20 02:12:14;;;;;;;6.18;4.38;;;;;;;10.65;42.32;95606.66;4971178;28;20111;-64
2021/09/20 02:14:39;;;;;;;4.97;3.90;;;;;;;10.68;41.31;95606.31;4969824;28;20464;-64
2021/09/20 02:17:05;;;;;;;8.85;4.20;;;;;;;10.71;41.15;95593.47;4970624;28;20133;-64
2021/09/20 02:19:30;;;;;;;4.47;3.70;;;;;;;10.74;40.83;95600.25;4971400;28;20483;-64
2021/09/20 02:21:55;;;;;;;5.97;4.10;;;;;;;10.72;41.74;95596.97;4971478;28;20142;-64
2021/09/20 02:24:21;;;;;;;6.50;4.70;;;;;;;10.62;41.90;95592.69;4970955;28;20114;-64
2021/09/20 02:26:46;;;;;;;4.45;3.90;;;;;;;10.64;41.29;95599.69;4972013;28;20097;-64
2021/09/20 02:29:12;;;;;;;6.38;4.30;;;;;;;10.62;41.28;95591.88;4959080;28;20564;-64
2021/09/20 02:31:37;;;;;;;6.65;4.40;;;;;;;10.60;42.02;95599.19;4970871;28;20117;-64
2021/09/20 02:34:03;;;;;;;4.70;4.10;;;;;;;10.65;41.09;95601.34;4971309;28;20508;-64
2021/09/20 02:36:28;;;;;;;7.07;4.38;;;;;;;10.62;41.89;95592.69;4970517;28;20114;-64
2021/09/20 02:38:53;;;;;;;5.20;4.20;;;;;;;10.60;41.61;95591.22;4958677;28;20085;-64
2021/09/20 02:41:19;;;;;;;4.82;4.00;;;;;;;10.59;42.14;95603.72;4968795;28;20077;-64
2021/09/20 02:43:44;;;;;;;5.88;4.35;;;;;;;10.54;43.31;95606.06;4970534;28;20039;-64
2021/09/20 02:46:10;;;;;;;5.97;4.32;;;;;;;10.41;42.63;95608.50;4965128;28;20030;-64
2021/09/20 02:48:36;;;;;;;6.03;4.38;;;;;;;10.44;42.36;95600.19;4968388;28;20069;-64
2021/09/20 02:51:02;;;;;;;7.28;4.25;;;;;;;10.54;41.38;95591.94;4968856;28;20528;-64
2021/09/20 02:53:27;;;;;;;7.30;4.30;;;;;;;10.57;41.53;95600.41;4970344;28;20031;-64
2021/09/20 02:55:52;;;;;;;4.53;3.85;;;;;;;10.53;42.11;95595.59;4970301;28;20062;-64
2021/09/20 02:58:18;;;;;;;6.10;4.00;;;;;;;10.60;41.26;95588.56;4960920;28;20098;-64
2021/09/20 03:00:43;;;;;;;5.40;3.85;;;;;;;10.57;41.66;95600.41;4974465;28;20050;-64
2021/09/20 03:03:09;;;;;;;4.50;3.70;;;;;;;10.53;41.86;95599.09;4974010;28;20035;-64
2021/09/20 03:05:35;;;;;;;5.45;4.28;;;;;;;10.51;42.03;95595.81;4974656;28;20038;-64
2021/09/20 03:08:00;;;;;;;5.60;4.03;;;;;;;10.51;41.88;95597.63;4973847;28;20062;-64
2021/09/20 03:10:26;;;;;;;7.28;4.18;;;;;;;10.56;40.98;95597.91;4974503;28;20359;-64
2021/09/20 03:12:51;;;;;;;4.53;3.72;;;;;;;10.55;41.31;95599.75;4973667;28;20468;-64
2021/09/20 03:15:17;;;;;;;3.95;3.42;;;;;;;10.54;41.58;95600.75;4963855;28;20424;-64
2021/09/20 03:17:42;;;;;;;5.10;3.55;;;;;;;10.53;42.51;95608.91;4973094;28;20376;-64
2021/09/20 03:20:08;;;;;;;4.70;3.72;;;;;;;10.51;43.08;95608.28;4973722;28;20039;-64
2021/09/20 03:22:33;;;;;;;7.05;3.55;;;;;;;10.55;42.96;95612.22;4974533;28;20039;-64
2021/09/20 03:24:59;;;;;;;6.18;4.18;;;;;;;10.53;42.32;95604.41;4973656;28;20039;-64
2021/09/20 03:27:24;;;;;;;6.15;3.80;;;;;;;10.56;41.91;95609.41;4969981;28;20043;-64
2021/09/20 03:29:50;;;;;;;5.43;4.45;;;;;;;10.50;41.85;95604.78;4966538;28;20035;-64
2021/09/20 03:32:15;;;;;;;5.63;3.88;;;;;;;10.58;41.67;95611.88;4973536;28;20043;-64
2021/09/20 03:34:41;;;;;;;4.68;3.90;;;;;;;10.53;41.58;95603.56;4974101;28;20073;-64
2021/09/20 03:37:07;;;;;;;5.65;4.43;;;;;;;10.54;41.25;95614.06;4973567;28;20043;-64
2021/09/20 03:39:32;;;;;;;4.72;4.18;;;;;;;10.51;41.04;95616.25;4973927;28;20118;-64
2021/09/20 03:41:58;;;;;;;5.68;4.15;;;;;;;10.43;41.81;95609.13;4975416;28;20130;-64
2021/09/20 03:44:23;;;;;;;5.20;4.00;;;;;;;10.46;40.79;95606.97;4971985;28;20208;-64
2021/09/20 03:46:48;;;;;;;5.95;3.72;;;;;;;10.46;42.06;95614.13;4974548;28;20141;-64
2021/09/20 03:49:14;;;;;;;7.53;4.80;;;;;;;10.43;41.32;95619.78;4974004;28;20166;-64
2021/09/20 03:51:40;;;;;;;6.90;4.35;;;;;;;10.47;41.12;95623.75;4973143;28;20038;-64
2021/09/20 03:54:05;;;;;;;7.32;4.80;;;;;;;10.38;41.12;95623.00;4973673;28;20332;-64
2021/09/20 03:56:31;;;;;;;7.18;5.20;;;;;;;10.38;40.20;95627.47;4973140;28;20487;-64
2021/09/20 03:58:56;;;;;;;5.68;4.50;;;;;;;10.36;41.04;95630.31;4973501;28;20623;-64
2021/09/20 04:01:22;;;;;;;6.15;3.85;;;;;;;10.34;41.28;95629.69;4973036;28;20066;-64
2021/09/20 04:03:47;;;;;;;5.55;4.10;;;;;;;10.36;40.80;95636.47;4972652;28;20543;-64
2021/09/20 04:06:12;;;;;;;5.55;4.03;;;;;;;10.38;41.08;95640.78;4972928;28;20500;-64
2021/09/20 04:08:38;;;;;;;5.38;3.80;;;;;;;10.38;41.33;95640.78;4973036;28;20042;-64
2021/09/20 04:11:03;;;;;;;6.65;4.40;;;;;;;10.38;41.31;95644.28;4972550;28;20026;-64
2021/09/20 04:13:29;;;;;;;5.10;3.78;;;;;;;10.35;42.26;95634.84;4973133;28;20150;-64
2021/09/20 04:15:54;;;;;;;5.47;3.80;;;;;;;10.33;41.59;95646.63;4972944;28;20540;-64
2021/09/20 04:18:22;;;;;;;5.38;3.90;;;;;;;10.34;41.77;95654.44;4973772;28;20437;-64
2021/09/20 04:20:48;;;;;;;4.95;4.10;;;;;;;10.35;41.84;95650.78;4972082;28;20190;-64
2021/09/20 04:23:14;;;;;;;5.22;4.00;;;;;;;10.38;42.01;95654.09;4972233;28;20091;-64
2021/09/20 04:25:39;;;;;;;4.72;4.25;;;;;;;10.40;41.57;95650.25;4973870;28;20134;-64
2021/09/20 04:28:05;;;;;;;6.72;3.95;;;;;;;10.38;42.10;95654.09;4964194;28;20130;-64
2021/09/20 04:30:30;;;;;;;7.00;4.57;;;;;;;10.31;41.57;95652.16;4971671;28;20472;-64
2021/09/20 04:32:56;;;;;;;7.13;4.68;;;;;;;10.24;41.50;95659.19;4972783;28;20038;-64
2021/09/20 04:35:21;;;;;;;7.82;4.32;;;;;;;10.28;42.21;95655.16;4972589;28;20035;-64
2021/09/20 04:37:47;;;;;;;5.25;4.30;;;;;;;10.28;41.68;95652.50;4962511;28;20361;-64
2021/09/20 04:40:12;;;;;;;7.32;4.88;;;;;;;10.29;41.26;95655.97;4969874;28;20054;-64
2021/09/20 04:42:38;;;;;;;7.50;4.60;;;;;;;10.27;41.81;95658.00;4973108;28;20027;-64
2021/09/20 04:45:04;;;;;;;7.22;4.45;;;;;;;10.16;42.44;95665.34;4967953;28;20043;-64
2021/09/20 04:47:29;;;;;;;6.38;5.05;;;;;;;10.09;42.68;95659.91;4972758;28;20043;-64
2021/09/20 04:49:54;;;;;;;8.00;4.80;;;;;;;10.16;41.69;95661.88;4972933;28;20506;-64
2021/09/20 04:52:20;;;;;;;5.85;4.35;;;;;;;10.12;41.70;95660.53;4972349;28;20039;-64
2021/09/20 04:54:45;;;;;;;6.03;4.70;;;;;;;10.17;41.62;95664.34;4972868;28;20380;-64
2021/09/20 04:57:11;;;;;;;7.28;4.68;;;;;;;10.19;41.78;95666.84;4966662;28;20046;-64
2021/09/20 04:59:36;;;;;;;6.05;4.50;;;;;;;10.18;42.28;95671.34;4969122;28;20042;-64
2021/09/20 05:02:02;;;;;;;6.40;4.82;;;;;;;9.89;43.69;95671.94;4972930;28;20034;-64
2021/09/20 05:04:27;;;;;;;8.38;4.50;;;;;;;9.97;43.02;95677.22;4970903;28;20041;-64
2021/09/20 05:06:52;;;;;;;6.75;4.68;;;;;;;9.97;43.45;95674.56;4972648;28;20030;-64
2021/09/20 05:09:18;;;;;;;5.93;4.88;;;;;;;9.88;43.25;95681.75;4972185;28;20685;-64
2021/09/20 05:11:43;;;;;;;6.70;4.65;;;;;;;10.01;41.83;95677.69;4971920;28;20354;-64
2021/09/20 05:14:09;;;;;;;4.95;4.00;;;;;;;10.06;41.73;95681.53;4971512;28;20532;-64
2021/09/20 05:16:34;;;;;;;6.30;4.15;;;;;;;10.08;42.15;95676.03;4961913;28;20042;-64
2021/09/20 05:19:00;;;;;;;5.60;4.32;;;;;;;10.01;42.81;95675.88;4972436;28;20042;-64
2021/09/20 05:21:25;;;;;;;6.03;4.60;;;;;;;10.04;42.81;95675.53;4971529;28;20047;-64
2021/09/20 05:23:51;;;;;;;5.70;4.20;;;;;;;10.03;43.02;95678.38;4971873;28;20031;-64
2021/09/20 05:26:17;;;;;;;5.15;4.50;;;;;;;10.04;42.43;95680.84;4972670;28;20031;-64
2021/09/20 05:28:43;;;;;;;6.25;4.25;;;;;;;10.09;42.20;95678.53;4972008;28;20038;-64
2021/09/20 05:31:08;;;;;;;8.20;5.18;;;;;;;9.98;42.28;95671.75;4971492;28;20026;-64
2021/09/20 05:33:34;;;;;;;6.20;4.57;;;;;;;9.85;45.74;95677.59;4972418;28;20030;-64
2021/09/20 05:36:04;;;;;;;5.43;4.53;;;;;;;9.89;43.18;95669.28;4967179;28;20179;-64
2021/09/20 05:38:29;;;;;;;6.80;4.57;;;;;;;9.94;43.28;95670.44;4965287;28;20035;-64
2021/09/20 05:40:55;;;;;;;6.63;5.10;;;;;;;9.83;46.01;95678.78;4960130;28;20054;-64
2021/09/20 05:43:20;;;;;;;5.60;4.80;;;;;;;9.92;43.33;95683.06;4965860;28;20067;-64
2021/09/20 05:45:46;;;;;;;5.88;4.72;;;;;;;9.92;41.82;95687.53;4965322;28;20093;-64
2021/09/20 05:48:11;;;;;;;6.15;4.95;;;;;;;9.87;43.07;95677.44;4961219;28;20472;-64
2021/09/20 05:50:36;;;;;;;8.23;4.85;;;;;;;9.94;42.25;95681.06;4959458;28;20035;-64
2021/09/20 05:53:02;;;;;;;5.75;4.63;;;;;;;9.71;46.76;95686.28;4965589;28;20042;-64
2021/09/20 05:55:27;;;;;;;6.60;4.65;;;;;;;9.57;47.72;95682.50;4965253;28;20479;-64
2021/09/20 05:57:53;;;;;;;8.93;5.50;;;;;;;9.61;47.82;95682.97;4965260;28;20058;-64
2021/09/20 06:00:18;;;;;;;7.43;5.25;;;;;;;9.59;47.63;95680.50;4964748;28;20051;-64
2021/09/20 06:02:44;;;;;;;8.57;4.68;;;;;;;9.60;49.95;95690.13;4965014;28;20101;-64
2021/09/20 06:05:12;;;;;;;6.68;4.97;;;;;;;9.74;47.32;95691.25;4964553;28;20365;-64
2021/09/20 06:07:38;;;;;;;;;;;;;;;9.76;48.86;95689.25;4965525;28;20193;-64
2021/09/20 06:10:04;;;;;;;9.87;7.00;;;;;;;9.78;48.95;95692.56;4962046;28;20399;-64
2021/09/20 06:12:29;;;;;;;9.10;6.75;;;;;;;9.88;47.61;95694.19;4964160;28;20042;-64
2021/09/20 06:14:54;;;;;;;10.45;7.97;;;;;;;9.90;46.54;95689.56;4958272;28;20055;-64
2021/09/20 06:17:20;;;;;;;11.93;8.98;;;;;;;9.93;48.27;95689.22;4961811;28;20078;-64
2021/09/20 06:19:47;;;;;;;12.45;9.75;;;;;;;9.98;48.40;95692.19;4964441;28;20051;-64
2021/09/20 06:22:12;;;;;;;11.25;8.75;;;;;;;10.02;48.23;95687.31;4964585;28;20041;-64
2021/09/20 06:24:38;;;;;;;12.98;9.30;;;;;;;10.12;47.90;95692.47;4965145;28;20043;-64
2021/09/20 06:27:03;;;;;;;13.18;8.55;;;;;;;10.20;46.95;95692.47;4964641;28;20412;-64
2021/09/20 06:29:29;;;;;;;12.18;7.97;;;;;;;10.33;46.52;95690.03;4965884;28;20030;-64
2021/09/20 06:31:55;;;;;;;12.45;8.55;;;;;;;10.35;46.90;95693.38;4971443;28;20034;-64
2021/09/20 06:34:20;;;;;;;9.77;8.00;;;;;;;10.36;45.90;95697.69;4983364;28;20140;-64
2021/09/20 06:36:46;;;;;;;10.32;8.60;;;;;;;10.37;46.63;95693.19;4972841;28;20039;-64
2021/09/20 06:39:11;;;;;;;11.75;8.23;;;;;;;10.38;46.89;95697.50;4967959;28;20031;-64
2021/09/20 06:41:37;;;;;;;13.13;8.60;;;;;;;10.62;46.33;95695.72;4984509;28;20038;-64
2021/09/20 06:44:03;;;;;;;7.95;6.82;;;;;;;10.65;43.82;95692.69;4984490;28;20040;-64
2021/09/20 06:46:30;;;;;;;12.10;8.70;;;;;;;10.71;46.01;95701.81;4981639;28;20037;-64
2021/09/20 06:48:58;;;;;;;14.68;9.98;;;;;;;10.84;44.91;95702.03;4975911;28;20066;-64
2021/09/20 06:51:24;;;;;;;;;;;;;;;10.99;45.38;95707.41;4980310;28;20065;-63
2021/09/20 06:53:50;;;;;;;13.38;9.52;;;;;;;11.07;44.72;95701.22;4965033;28;20383;-63
2021/09/20 06:56:16;;;;;;;14.43;10.18;;;;;;;11.20;44.56;95713.97;4963624;28;20043;-63
2021/09/20 06:58:42;;;;;;;11.95;9.63;;;;;;;11.31;44.13;95711.84;4963356;28;20058;-63
2021/09/20 07:01:07;;;;;;;14.85;10.32;;;;;;;11.44;43.75;95708.56;4963708;28;20492;-63
2021/09/20 07:03:33;;;;;;;14.10;10.30;;;;;;;11.48;43.18;95710.72;4964774;28;20046;-63
2021/09/20 07:05:58;;;;;;;16.63;9.90;;;;;;;11.52;43.28;95712.00;4963607;28;20090;-63
2021/09/20 07:08:24;;;;;;;11.02;8.30;;;;;;;11.63;41.09;95708.06;4964118;28;20103;-63
2021/09/20 07:10:49;;;;;;;16.45;11.25;;;;;;;11.77;42.74;95713.59;4965418;28;20339;-63
2021/09/20 07:13:14;;;;;;;15.70;11.18;;;;;;;11.91;42.21;95714.59;4964296;28;20095;-63
2021/09/20 07:15:40;;;;;;;17.55;13.40;;;;;;;12.03;42.42;95717.63;4958719;28;20105;-63
2021/09/20 07:18:05;;;;;;;17.23;11.68;;;;;;;12.14;41.66;95719.84;4964036;28;20213;-63
2021/09/20 07:20:31;;;;;;;18.67;13.70;;;;;;;12.24;40.10;95724.09;4964600;28;20112;-63
2021/09/20 07:22:56;;;;;;;18.98;12.85;;;;;;;12.39;40.51;95714.22;4964460;28;20086;-63
2021/09/20 07:25:22;;;;;;;22.75;13.23;;;;;;;12.37;40.77;95716.25;4964253;28;20459;-63
2021/09/20 07:27:47;;;;;;;18.08;13.90;;;;;;;12.53;40.00;95720.53;4966384;28;20187;-63
2021/09/20 07:30:18;;;;;;;25.75;16.23;;;;;;;12.51;40.27;95722.56;4964478;28;20437;-63
2021/09/20 07:32:48;;;;;;;29.13;20.17;;;;;;;12.55;40.48;95728.38;4974659;28;20202;-63
2021/09/20 07:35:16;;;;;;;23.98;16.77;;;;;;;12.74;39.99;95740.28;4965581;28;20039;-63
2021/09/20 07:37:51;;;;;;;26.73;19.63;;;;;;;12.78;39.90;95746.06;4983895;28;20030;-63
2021/09/20 07:40:16;;;;;;;31.10;19.48;;;;;;;12.89;39.07;95745.56;4980970;28;20118;-63
2021/09/20 07:42:42;;;;;;;33.50;20.13;;;;;;;13.00;39.72;95740.78;4983922;28;20459;-63
2021/09/20 07:45:09;;;;;;;27.77;17.13;;;;;;;13.12;38.74;95735.75;4968515;28;20153;-63
2021/09/20 07:47:34;;;;;;;29.85;19.33;;;;;;;13.13;39.18;95740.91;4975977;28;20038;-63
2021/09/20 07:50:00;;;;;;;30.27;18.65;;;;;;;13.12;39.21;95747.25;4981353;28;20037;-63
2021/09/20 07:52:26;;;;;;;32.03;17.40;;;;;;;13.28;38.85;95750.69;4987992;28;20177;-63
2021/09/20 07:54:52;;;;;;;29.92;14.85;;;;;;;13.36;38.08;95749.75;4987639;28;20440;-63
2021/09/20 07:57:17;;;;;;;27.33;17.52;;;;;;;13.50;38.43;95753.38;4987254;28;20046;-63
2021/09/20 07:59:43;;;;;;;18.10;12.23;;;;;;;13.67;37.67;95752.03;4984078;28;20399;-63
2021/09/20 08:02:08;;;;;;;25.35;14.35;;;;;;;13.69;37.04;95762.56;4980523;28;20138;-63
2021/09/20 08:04:34;;;;;;;30.02;16.92;;;;;;;13.53;37.82;95761.00;4986120;28;20153;-63
2021/09/20 08:06:59;;;;;;;21.38;12.15;;;;;;;13.73;36.96;95761.13;4986818;28;20034;-63
2021/09/20 08:09:25;;;;;;;31.20;16.73;;;;;;;13.74;37.61;95765.50;4986639;28;20047;-63
2021/09/20 08:11:50;;;;;;;25.77;14.05;;;;;;;13.86;37.10;95765.75;4975279;28;20039;-63
2021/09/20 08:14:15;;;;;;;24.08;14.05;;;;;;;13.98;37.04;95775.97;4965942;28;20066;-63
2021/09/20 08:16:41;;;;;;;31.15;15.00;;;;;;;14.07;36.73;95774.78;4975517;28;20118;-63
2021/09/20 08:19:06;;;;;;;26.40;13.77;;;;;;;14.09;36.89;95770.06;4986030;28;20575;-63
2021/09/20 08:21:32;;;;;;;17.17;10.10;;;;;;;14.26;34.56;95775.09;4967510;28;20427;-63
2021/09/20 08:23:57;;;;;;;16.02;9.82;;;;;;;14.57;33.41;95771.13;4967035;28;20046;-63
2021/09/20 08:26:23;;;;;;;12.30;7.82;;;;;;;14.76;33.07;95777.63;4967387;28;20045;-63
2021/09/20 08:28:48;;;;;;;10.00;6.20;;;;;;;14.75;32.59;95777.81;4967317;28;20073;-63
2021/09/20 08:31:13;;;;;;;16.05;11.25;;;;;;;14.40;33.38;95776.81;4966777;28;20027;-63
2021/09/20 08:33:39;;;;;;;16.10;8.25;;;;;;;14.54;33.51;95776.88;4967563;28;20085;-63
2021/09/20 08:36:04;;;;;;;27.25;12.32;;;;;;;14.60;34.26;95781.44;4966671;28;20035;-63
2021/09/20 08:38:30;;;;;;;13.18;9.48;;;;;;;14.69;32.99;95782.91;4966333;28;20411;-63
2021/09/20 08:40:55;;;;;;;10.68;6.95;;;;;;;14.88;33.71;95783.22;4966188;28;20050;-63
2021/09/20 08:43:21;;;;;;;11.63;7.00;;;;;;;15.08;32.08;95785.97;4965240;28;20699;-63
2021/09/20 08:45:47;;;;;;;19.50;10.20;;;;;;;15.19;32.86;95783.69;4964067;28;20087;-63
2021/09/20 08:48:12;;;;;;;12.43;8.70;;;;;;;15.26;32.04;95794.47;4961916;28;20103;-63
2021/09/20 08:50:38;;;;;;;13.18;8.43;;;;;;;15.38;32.93;95791.97;4961942;28;20046;-63
2021/09/20 08:53:04;;;;;;;22.45;14.98;;;;;;;15.08;33.49;95795.84;4966344;28;20043;-63
2021/09/20 08:55:30;;;;;;;19.48;12.52;;;;;;;15.15;34.58;95796.69;4965330;28;20038;-63
2021/09/20 08:57:55;;;;;;;28.30;16.48;;;;;;;15.00;33.47;95804.06;4961087;28;20485;-63
2021/09/20 09:00:21;;;;;;;30.42;16.35;;;;;;;14.89;35.21;95800.13;4964624;28;20450;-63
2021/09/20 09:02:46;;;;;;;28.38;16.67;;;;;;;14.96;35.28;95796.44;4967340;28;20094;-63
2021/09/20 09:05:23;;;;;;;17.05;12.07;;;;;;;15.39;34.28;95801.66;4965214;28;20559;-63
2021/09/20 09:08:05;;;;;;;25.55;13.45;;;;;;;15.46;33.92;95803.34;4966075;28;20050;-63
2021/09/20 09:10:32;;;;;;;15.63;9.68;;;;;;;15.65;33.76;95800.09;4981119;28;20519;-63
2021/09/20 09:12:57;;;;;;;27.83;13.65;;;;;;;15.58;33.63;95803.59;4964358;28;20141;-63
2021/09/20 09:15:24;;;;;;;15.88;10.00;;;;;;;15.56;32.79;95807.50;4985728;28;20059;-63
2021/09/20 09:17:55;;;;;;;12.27;8.50;;;;;;;15.96;32.63;95806.69;4985200;28;20062;-63
2021/09/20 09:20:42;;;;;;;9.35;6.10;;;;;;;16.17;32.44;95811.00;4984907;28;20585;-63
2021/09/20 09:23:09;;;;;;;15.38;10.13;;;;;;;16.02;32.42;95808.56;4984160;28;20571;-63
2021/09/20 09:25:40;;;;;;;11.15;6.63;;;;;;;15.89;32.70;95814.75;4986724;28;20507;-63
2021/09/20 09:28:11;;;;;;;12.88;7.88;;;;;;;15.79;33.15;95807.13;4985693;28;20232;-63
2021/09/20 09:30:42;;;;;;;14.77;8.55;;;;;;;15.92;32.81;95808.13;4986437;28;20041;-63
2021/09/20 09:33:12;;;;;;;12.02;7.10;;;;;;;16.15;32.30;95815.75;4984450;28;20057;-63
2021/09/20 09:35:39;;;;;;;10.95;5.85;;;;;;;16.37;31.48;95812.84;4984097;28;20192;-63
2021/09/20 09:38:06;;;;;;;11.27;5.40;;;;;;;16.67;31.20;95815.03;4989767;28;20733;-63
2021/09/20 09:40:59;;;;;;;13.80;6.28;;;;;;;16.84;30.76;95812.69;4991610;28;20126;-63
2021/09/20 09:43:31;;;;;;;14.63;6.10;;;;;;;16.96;31.02;95815.53;4989047;28;20081;-63
2021/09/20 09:45:58;;;;;;;11.23;6.10;;;;;;;17.05;30.85;95817.97;4992196;28;20032;-63
2021/09/20 09:48:26;;;;;;;9.52;6.28;;;;;;;17.32;30.03;95812.47;4986341;28;20031;-63
2021/09/20 09:50:56;;;;;;;14.52;7.65;;;;;;;17.28;30.29;95809.41;4991783;28;20027;-63
2021/09/20 09:53:31;;;;;;;12.00;7.50;;;;;;;17.58;29.52;95810.66;4990782;28;20062;-63
2021/09/20 09:56:02;;;;;;;12.43;7.07;;;;;;;17.44;29.89;95816.13;4991456;28;20038;-63
2021/09/20 09:58:28;;;;;;;9.32;5.63;;;;;;;17.84;28.12;95822.28;4990503;28;20034;-63
2021/09/20 10:01:16;;;;;;;5.97;4.75;;;;;;;17.67;28.58;95814.72;4990602;28;20101;-63
2021/09/20 10:04:04;;;;;;;7.00;5.13;;;;;;;17.99;29.06;95819.25;4990768;28;20030;-63
2021/09/20 10:06:34;;;;;;;6.45;4.82;;;;;;;18.12;28.89;95816.44;4981024;28;20041;-63
2021/09/20 10:09:00;;;;;;;12.05;5.75;;;;;;;18.13;28.77;95825.34;4982830;28;20042;-63
2021/09/20 10:11:25;;;;;;;7.60;4.95;;;;;;;18.38;27.89;95821.78;4983228;28;20551;-63
2021/09/20 10:13:51;;;;;;;8.35;5.18;;;;;;;18.48;28.33;95822.09;4961099;28;20123;-63
2021/09/20 10:16:16;;;;;;;9.15;6.30;;;;;;;18.57;28.17;95825.34;4982281;28;20122;-63
2021/09/20 10:18:42;;;;;;;6.75;5.45;;;;;;;18.55;27.92;95827.41;4983738;28;20079;-63
2021/09/20 10:21:07;;;;;;;7.22;5.80;;;;;;;18.87;27.51;95829.16;4982590;28;20046;-63
2021/09/20 10:23:32;;;;;;;5.95;5.00;;;;;;;18.82;27.34;95819.88;4966504;28;20030;-63
2021/09/20 10:25:58;;;;;;;5.93;4.18;;;;;;;19.14;27.59;95818.03;4984847;28;20314;-63
2021/09/20 10:28:23;;;;;;;5.28;4.30;;;;;;;19.29;25.91;95820.34;4984215;28;20038;-63
2021/09/20 10:30:49;;;;;;;7.75;5.10;;;;;;;19.10;27.13;95823.06;4985265;28;20026;-63
2021/09/20 10:33:15;;;;;;;6.47;4.50;;;;;;;19.48;26.91;95823.00;4966103;28;20121;-63
2021/09/20 10:35:42;;;;;;;7.38;4.65;;;;;;;19.73;26.45;95820.13;4982114;28;20049;-63
2021/09/20 10:38:26;;;;;;;6.45;5.47;;;;;;;19.79;25.62;95823.78;4985472;28;20033;-63
2021/09/20 10:41:11;;;;;;;10.23;4.72;;;;;;;19.96;25.30;95824.75;4978362;28;20069;-63
2021/09/20 10:43:41;;;;;;;5.97;3.45;;;;;;;20.28;25.06;95828.16;4983933;28;20047;-63
2021/09/20 10:46:20;;;;;;;3.25;2.95;;;;;;;20.68;24.37;95829.34;4984718;28;20112;-63
2021/09/20 10:48:48;;;;;;;10.27;5.18;;;;;;;20.57;25.73;95833.69;4972757;28;20386;-63
2021/09/20 10:51:13;;;;;;;5.80;3.40;;;;;;;20.67;24.99;95828.50;4983711;28;20057;-63
2021/09/20 10:53:39;;;;;;;6.60;3.87;;;;;;;21.07;24.59;95831.50;4984608;28;20050;-63
2021/09/20 10:56:06;;;;;;;7.25;3.72;;;;;;;21.09;24.83;95840.19;4983993;28;20861;-63
2021/09/20 10:58:33;;;;;;;7.85;4.85;;;;;;;21.20;22.88;95838.47;4984328;28;20546;-63
2021/09/20 11:01:11;;;;;;;13.15;6.93;;;;;;;20.82;24.96;95841.56;4983076;28;20122;-63
2021/09/20 11:03:48;;;;;;;8.68;5.78;;;;;;;21.19;24.55;95834.13;4983346;28;20507;-63
2021/09/20 11:06:34;;;;;;;22.83;11.98;;;;;;;20.85;23.77;95840.25;4975691;28;20026;-63
2021/09/20 11:08:59;;;;;;;12.48;7.47;;;;;;;21.19;24.71;95834.97;4981647;28;20129;-63
2021/09/20 11:11:43;;;;;;;9.23;6.55;;;;;;;21.40;24.39;95832.66;4983564;28;20270;-63
2021/09/20 11:14:12;;;;;;;39.70;18.90;;;;;;;21.64;23.43;95835.25;4983633;28;20618;-63
2021/09/20 11:17:15;;;;;;;11.75;7.47;;;;;;;21.59;24.08;95837.88;4984029;28;20042;-63
2021/09/20 11:19:41;;;;;;;9.32;6.20;;;;;;;21.33;24.13;95835.53;4989373;28;20045;-63
2021/09/20 11:22:16;;;;;;;6.57;4.38;;;;;;;21.87;23.90;95838.88;4988008;28;20105;-63
2021/09/20 11:24:46;;;;;;;8.20;5.60;;;;;;;21.73;23.63;95831.09;4985325;28;20286;-63
2021/09/20 11:27:21;;;;;;;11.60;6.20;;;;;;;21.70;24.20;95841.59;4986528;28;20093;-63
2021/09/20 11:30:03;;;;;;;6.28;4.68;;;;;;;21.45;23.89;95840.06;4988771;28;20054;-63